createdAt,value
2022-11-07T00:02:14.804Z,22.80
2022-11-07T00:04:42.972Z,20.60
2022-11-07T00:07:11.338Z,20.40
2022-11-07T00:09:39.317Z,22.30
2022-11-07T00:12:07.709Z,21.40
2022-11-07T00:14:35.967Z,21.40
2022-11-07T00:17:03.999Z,19.30
2022-11-07T00:19:32.359Z,18.50
2022-11-07T00:22:00.732Z,14.90
2022-11-07T00:24:28.697Z,19.10
2022-11-07T00:26:57.173Z,23.00
2022-11-07T00:29:25.290Z,21.00
2022-11-07T00:31:53.345Z,20.50
2022-11-07T00:34:21.347Z,20.00
2022-11-07T00:36:49.407Z,20.70
2022-11-07T00:39:18.044Z,20.50
2022-11-07T00:41:49.427Z,20.60
2022-11-07T00:44:17.690Z,17.00
2022-11-07T00:46:45.671Z,18.40
2022-11-07T00:49:13.801Z,18.90
2022-11-07T00:51:42.153Z,17.30
2022-11-07T00:54:10.323Z,17.80
2022-11-07T00:56:38.336Z,16.90
2022-11-07T00:59:06.587Z,18.10
2022-11-07T01:01:36.124Z,17.30
2022-11-07T01:04:23.539Z,17.80
2022-11-07T01:06:51.622Z,14.90
2022-11-07T01:09:21.753Z,16.20
2022-11-07T01:11:49.971Z,16.90
2022-11-07T01:14:20.842Z,17.60
2022-11-07T01:16:48.965Z,19.70
2022-11-07T01:21:46.865Z,17.90
2022-11-07T01:24:16.714Z,17.70
2022-11-07T01:26:49.481Z,19.30
2022-11-07T01:29:19.321Z,18.00
2022-11-07T01:31:48.508Z,17.60
2022-11-07T01:34:17.919Z,16.20
2022-11-07T01:36:46.213Z,15.00
2022-11-07T01:39:14.592Z,15.10
2022-11-07T01:41:43.714Z,16.30
2022-11-07T01:44:11.683Z,16.10
2022-11-07T01:46:44.777Z,14.70
2022-11-07T01:49:20.771Z,15.30
2022-11-07T01:51:48.738Z,12.90
2022-11-07T01:54:20.380Z,13.50
2022-11-07T01:56:49.459Z,13.30
2022-11-07T01:59:21.455Z,13.90
2022-11-07T02:01:50.654Z,14.40
2022-11-07T02:04:20.598Z,12.40
2022-11-07T02:07:09.866Z,13.50
2022-11-07T02:09:38.050Z,13.70
2022-11-07T02:12:06.913Z,15.30
2022-11-07T02:14:35.079Z,13.40
2022-11-07T02:17:03.388Z,12.80
2022-11-07T02:19:42.380Z,13.10
2022-11-07T02:22:41.124Z,15.20
2022-11-07T02:25:15.612Z,16.50
2022-11-07T02:27:45.431Z,13.50
2022-11-07T02:30:20.494Z,14.00
2022-11-07T02:32:48.857Z,16.10
2022-11-07T02:35:37.035Z,15.90
2022-11-07T02:38:07.743Z,17.70
2022-11-07T02:40:36.688Z,19.20
2022-11-07T02:43:06.932Z,17.60
2022-11-07T02:45:37.643Z,16.90
2022-11-07T02:48:06.217Z,18.60
2022-11-07T02:50:34.223Z,17.00
2022-11-07T02:53:02.280Z,17.10
2022-11-07T02:55:30.360Z,15.20
2022-11-07T02:57:58.625Z,15.40
2022-11-07T03:00:26.555Z,15.30
2022-11-07T03:02:55.008Z,15.00
2022-11-07T03:05:23.262Z,13.80
2022-11-07T03:07:51.328Z,14.80
2022-11-07T03:10:19.869Z,15.00
2022-11-07T03:12:47.856Z,15.10
2022-11-07T03:15:16.338Z,15.60
2022-11-07T03:17:44.414Z,13.60
2022-11-07T03:20:12.924Z,13.50
2022-11-07T03:22:40.907Z,12.00
2022-11-07T03:25:09.173Z,14.20
2022-11-07T03:27:46.366Z,15.50
2022-11-07T03:30:14.915Z,18.00
2022-11-07T03:32:43.442Z,16.10
2022-11-07T03:35:11.745Z,17.90
2022-11-07T03:37:40.035Z,17.50
2022-11-07T03:40:08.878Z,17.30
2022-11-07T03:45:10.643Z,16.00
2022-11-07T03:47:40.764Z,17.60
2022-11-07T03:50:10.795Z,19.00
2022-11-07T03:52:39.079Z,18.50
2022-11-07T03:55:08.083Z,17.30
2022-11-07T03:57:36.268Z,17.10
2022-11-07T04:00:07.287Z,17.50
2022-11-07T04:02:40.529Z,17.40
2022-11-07T04:05:09.337Z,18.30
2022-11-07T04:07:37.499Z,12.70
2022-11-07T04:10:06.408Z,17.90
2022-11-07T04:12:53.106Z,17.80
2022-11-07T04:15:41.369Z,18.40
2022-11-07T04:18:09.780Z,18.70
2022-11-07T04:20:37.797Z,22.80
2022-11-07T04:23:05.925Z,25.20
2022-11-07T04:25:52.758Z,21.10
2022-11-07T04:28:21.056Z,20.30
2022-11-07T04:30:49.448Z,19.40
2022-11-07T04:33:17.753Z,32.80
2022-11-07T04:35:45.955Z,24.70
2022-11-07T04:38:14.687Z,24.30
2022-11-07T04:43:10.854Z,19.40
2022-11-07T04:45:40.587Z,20.80
2022-11-07T04:48:10.908Z,21.50
2022-11-07T04:50:39.910Z,22.70
2022-11-07T04:53:07.934Z,24.90
2022-11-07T04:55:35.855Z,25.40
2022-11-07T04:58:03.967Z,25.40
2022-11-07T05:00:31.898Z,25.70
2022-11-07T05:03:00.385Z,25.80
2022-11-07T05:05:29.135Z,22.30
2022-11-07T05:10:28.572Z,28.70
2022-11-07T05:12:56.822Z,27.80
2022-11-07T05:15:25.026Z,23.30
2022-11-07T05:17:53.178Z,22.30
2022-11-07T05:20:30.635Z,20.60
2022-11-07T05:23:18.446Z,21.90
2022-11-07T05:28:28.131Z,69.00
2022-11-07T05:31:02.012Z,50.70
2022-11-07T05:33:30.675Z,39.70
2022-11-07T05:36:18.240Z,42.50
2022-11-07T05:38:48.685Z,28.20
2022-11-07T05:41:18.601Z,22.40
2022-11-07T05:43:47.083Z,22.70
2022-11-07T05:46:16.009Z,21.30
2022-11-07T05:51:11.923Z,20.50
2022-11-07T05:53:42.028Z,16.70
2022-11-07T05:56:10.220Z,26.20
2022-11-07T05:58:38.451Z,26.80
2022-11-07T06:01:07.194Z,29.80
2022-11-07T06:03:35.219Z,28.30
2022-11-07T06:06:03.588Z,29.80
2022-11-07T06:08:31.826Z,28.70
2022-11-07T06:11:04.954Z,29.20
2022-11-07T06:13:33.019Z,25.70
2022-11-07T06:16:01.270Z,25.10
2022-11-07T06:18:29.652Z,25.80
2022-11-07T06:21:01.101Z,28.50
2022-11-07T06:23:29.166Z,36.00
2022-11-07T06:25:57.582Z,39.70
2022-11-07T06:30:54.411Z,37.80
2022-11-07T06:33:22.896Z,33.60
2022-11-07T06:35:50.873Z,34.40
2022-11-07T06:38:18.935Z,37.70
2022-11-07T06:40:47.044Z,34.10
2022-11-07T06:43:18.183Z,31.10
2022-11-07T06:45:47.774Z,34.50
2022-11-07T06:48:16.255Z,36.90
2022-11-07T06:50:44.284Z,39.90
2022-11-07T06:53:14.287Z,37.10
2022-11-07T06:55:42.962Z,32.70
2022-11-07T06:58:11.008Z,31.30
2022-11-07T07:00:39.287Z,39.30
2022-11-07T07:03:07.792Z,37.80
2022-11-07T07:05:36.043Z,40.50
2022-11-07T07:08:05.923Z,49.60
2022-11-07T07:10:38.144Z,58.70
2022-11-07T07:13:06.665Z,65.40
2022-11-07T07:15:49.416Z,66.90
2022-11-07T07:18:19.791Z,46.80
2022-11-07T07:20:49.711Z,47.00
2022-11-07T07:23:19.888Z,40.60
2022-11-07T07:25:48.356Z,38.00
2022-11-07T07:28:17.662Z,42.70
2022-11-07T07:30:51.543Z,48.10
2022-11-07T07:33:20.985Z,52.90
2022-11-07T07:38:17.201Z,55.10
2022-11-07T07:40:45.431Z,61.20
2022-11-07T07:43:13.755Z,64.90
2022-11-07T07:45:42.363Z,62.50
2022-11-07T07:48:10.776Z,63.60
2022-11-07T07:50:39.089Z,68.60
2022-11-07T07:53:09.224Z,67.70
2022-11-07T07:55:37.674Z,67.80
2022-11-07T07:58:05.845Z,78.70
2022-11-07T08:00:34.662Z,77.30
2022-11-07T08:03:09.031Z,73.80
2022-11-07T08:05:38.828Z,70.00
2022-11-07T08:08:08.536Z,70.40
2022-11-07T08:10:43.863Z,72.60
2022-11-07T08:13:12.477Z,84.70
2022-11-07T08:15:40.696Z,85.90
2022-11-07T08:18:09.120Z,95.70
2022-11-07T08:20:37.975Z,91.30
2022-11-07T08:23:14.798Z,120.70
2022-11-07T08:25:56.661Z,102.90
2022-11-07T08:28:29.985Z,91.60
2022-11-07T08:31:03.202Z,85.60
2022-11-07T08:33:31.731Z,76.90
2022-11-07T08:36:01.858Z,70.20
2022-11-07T08:38:32.211Z,70.80
2022-11-07T08:41:00.478Z,69.70
2022-11-07T08:43:28.816Z,58.00
2022-11-07T08:45:57.823Z,61.10
2022-11-07T08:48:26.102Z,67.70
2022-11-07T08:50:56.161Z,61.10
2022-11-07T08:53:26.558Z,50.30
2022-11-07T08:56:08.306Z,44.60
2022-11-07T08:58:37.423Z,49.00
2022-11-07T09:01:09.639Z,48.80
2022-11-07T09:03:46.113Z,50.10
2022-11-07T09:06:16.199Z,37.20
2022-11-07T09:08:45.009Z,32.10
2022-11-07T09:13:44.620Z,25.60
2022-11-07T09:18:41.174Z,28.40
2022-11-07T09:21:09.170Z,26.10
2022-11-07T09:23:37.683Z,25.30
2022-11-07T09:26:07.836Z,28.20
2022-11-07T09:28:36.313Z,23.60
2022-11-07T09:31:05.762Z,23.20
2022-11-07T09:33:34.043Z,26.70
2022-11-07T09:36:03.641Z,15.90
2022-11-07T09:38:32.434Z,17.20
2022-11-07T09:41:05.731Z,21.00
2022-11-07T09:44:05.145Z,17.50
2022-11-07T09:46:48.694Z,18.30
2022-11-07T09:49:26.369Z,22.20
2022-11-07T09:52:03.573Z,19.70
2022-11-07T09:54:37.276Z,27.70
2022-11-07T09:57:05.434Z,15.00
2022-11-07T09:59:45.910Z,25.70
2022-11-07T10:02:20.990Z,20.30
2022-11-07T10:04:55.604Z,20.00
2022-11-07T10:07:32.966Z,20.70
2022-11-07T10:10:20.621Z,20.40
2022-11-07T10:13:14.027Z,19.10
2022-11-07T10:16:01.127Z,26.10
2022-11-07T10:18:50.632Z,18.90
2022-11-07T10:21:38.392Z,20.30
2022-11-07T10:26:50.667Z,23.30
2022-11-07T10:29:21.304Z,26.90
2022-11-07T10:31:57.808Z,26.00
2022-11-07T10:34:38.261Z,23.10
2022-11-07T10:37:06.405Z,23.40
2022-11-07T10:39:34.437Z,30.10
2022-11-07T10:42:08.072Z,19.90
2022-11-07T10:44:36.310Z,23.00
2022-11-07T10:47:15.864Z,23.40
2022-11-07T10:49:55.972Z,21.10
2022-11-07T10:52:28.527Z,17.10
2022-11-07T10:55:06.902Z,20.00
2022-11-07T10:57:36.295Z,20.20
2022-11-07T11:00:08.475Z,20.90
2022-11-07T11:02:48.180Z,24.50
2022-11-07T11:05:25.442Z,26.10
2022-11-07T11:08:07.958Z,33.30
2022-11-07T11:10:39.228Z,108.90
2022-11-07T11:13:07.307Z,30.00
2022-11-07T11:15:45.843Z,34.80
2022-11-07T11:18:18.129Z,30.90
2022-11-07T11:20:56.901Z,54.50
2022-11-07T11:23:35.488Z,27.70
2022-11-07T11:29:05.984Z,30.10
2022-11-07T11:31:46.980Z,30.20
2022-11-07T11:34:36.854Z,44.30
2022-11-07T11:37:11.710Z,28.40
2022-11-07T11:39:45.856Z,23.50
2022-11-07T11:42:32.746Z,22.70
2022-11-07T11:45:14.807Z,20.80
2022-11-07T11:47:52.227Z,22.80
2022-11-07T11:50:31.901Z,24.40
2022-11-07T11:53:01.021Z,22.70
2022-11-07T11:55:38.656Z,21.00
2022-11-07T11:58:39.238Z,23.10
2022-11-07T12:01:21.408Z,20.70
2022-11-07T12:03:49.641Z,22.80
2022-11-07T12:06:40.904Z,18.60
2022-11-07T12:09:27.791Z,26.70
2022-11-07T12:12:19.722Z,21.50
2022-11-07T12:14:59.728Z,20.50
2022-11-07T12:17:50.517Z,17.40
2022-11-07T12:20:30.598Z,19.30
2022-11-07T12:23:14.267Z,16.70
2022-11-07T12:26:21.504Z,18.30
2022-11-07T12:29:20.048Z,17.30
2022-11-07T12:31:59.699Z,17.30
2022-11-07T12:34:45.397Z,24.50
2022-11-07T12:37:28.196Z,21.00
2022-11-07T12:40:16.946Z,19.10
2022-11-07T12:45:47.024Z,26.10
2022-11-07T12:48:28.015Z,30.80
2022-11-07T12:50:56.297Z,28.00
2022-11-07T12:53:40.776Z,26.90
2022-11-07T12:56:17.515Z,38.70
2022-11-07T12:58:47.492Z,27.50
2022-11-07T13:01:22.376Z,28.30
2022-11-07T13:04:09.344Z,25.70
2022-11-07T13:06:42.613Z,23.10
2022-11-07T13:09:28.507Z,23.80
2022-11-07T13:12:11.868Z,20.10
2022-11-07T13:14:45.586Z,23.40
2022-11-07T13:17:20.263Z,24.10
2022-11-07T13:20:05.209Z,22.50
2022-11-07T13:22:40.282Z,49.40
2022-11-07T13:25:22.646Z,43.30
2022-11-07T13:27:53.464Z,31.90
2022-11-07T13:30:32.131Z,29.20
2022-11-07T13:33:00.969Z,26.00
2022-11-07T13:38:13.610Z,28.20
2022-11-07T13:40:47.244Z,29.10
2022-11-07T13:43:22.411Z,27.90
2022-11-07T13:45:58.348Z,39.20
2022-11-07T13:48:42.343Z,44.80
2022-11-07T13:51:23.361Z,42.40
2022-11-07T13:54:28.755Z,37.80
2022-11-07T13:57:06.741Z,44.60
2022-11-07T13:59:55.158Z,58.60
2022-11-07T14:05:18.431Z,34.10
2022-11-07T14:07:49.863Z,31.90
2022-11-07T14:10:29.544Z,26.00
2022-11-07T14:13:29.849Z,25.20
2022-11-07T14:16:17.852Z,26.10
2022-11-07T14:19:07.463Z,25.00
2022-11-07T14:21:37.603Z,30.60
2022-11-07T14:24:23.387Z,24.10
2022-11-07T14:27:05.897Z,19.80
2022-11-07T14:29:34.542Z,28.50
2022-11-07T14:32:05.963Z,99.30
2022-11-07T14:34:36.140Z,27.70
2022-11-07T14:37:07.129Z,18.40
2022-11-07T14:39:36.411Z,24.30
2022-11-07T14:42:05.089Z,25.50
2022-11-07T14:44:54.028Z,27.80
2022-11-07T14:47:30.343Z,26.40
2022-11-07T14:50:02.031Z,29.60
2022-11-07T14:52:42.663Z,32.80
2022-11-07T14:55:27.653Z,28.00
2022-11-07T14:57:56.008Z,31.90
2022-11-07T15:00:24.613Z,49.00
2022-11-07T15:02:55.489Z,68.10
2022-11-07T15:05:26.063Z,84.20
2022-11-07T15:07:56.147Z,59.80
2022-11-07T15:10:34.270Z,31.70
2022-11-07T15:13:05.372Z,45.20
2022-11-07T15:15:35.733Z,34.00
2022-11-07T15:18:06.581Z,29.20
2022-11-07T15:20:38.400Z,34.20
2022-11-07T15:23:28.793Z,74.80
2022-11-07T15:25:59.560Z,40.70
2022-11-07T15:28:54.075Z,49.40
2022-11-07T15:31:24.400Z,57.60
2022-11-07T15:33:54.116Z,57.70
2022-11-07T15:36:22.699Z,58.50
2022-11-07T15:38:52.205Z,46.40
2022-11-07T15:41:20.266Z,47.30
2022-11-07T15:43:48.345Z,49.20
2022-11-07T15:46:22.454Z,43.00
2022-11-07T15:48:50.873Z,37.80
2022-11-07T15:51:19.225Z,38.00
2022-11-07T15:53:47.409Z,46.60
2022-11-07T15:56:19.795Z,56.60
2022-11-07T15:58:48.484Z,62.90
2022-11-07T16:01:16.956Z,76.60
2022-11-07T16:03:45.376Z,82.90
2022-11-07T16:06:26.363Z,60.70
2022-11-07T16:08:54.637Z,71.40
2022-11-07T16:11:23.447Z,65.00
2022-11-07T16:13:59.218Z,62.40
2022-11-07T16:16:37.483Z,54.50
2022-11-07T16:19:05.551Z,57.60
2022-11-07T16:21:33.999Z,52.70
2022-11-07T16:24:02.041Z,53.00
2022-11-07T16:26:30.557Z,50.20
2022-11-07T16:28:58.620Z,41.90
2022-11-07T16:31:27.110Z,48.80
2022-11-07T16:36:26.495Z,63.30
2022-11-07T16:38:55.435Z,78.70
2022-11-07T16:41:23.682Z,69.30
2022-11-07T16:43:51.943Z,56.40
2022-11-07T16:46:23.173Z,52.30
2022-11-07T16:48:55.277Z,59.30
2022-11-07T16:51:23.765Z,78.10
2022-11-07T16:53:51.896Z,79.40
2022-11-07T16:56:30.341Z,78.40
2022-11-07T16:58:59.161Z,72.60
2022-11-07T17:01:29.100Z,65.60
2022-11-07T17:03:57.456Z,57.20
2022-11-07T17:06:29.509Z,52.90
2022-11-07T17:09:06.105Z,57.40
2022-11-07T17:11:37.806Z,56.10
2022-11-07T17:14:06.031Z,53.60
2022-11-07T17:16:36.897Z,64.60
2022-11-07T17:19:07.380Z,75.20
2022-11-07T17:21:37.825Z,76.20
2022-11-07T17:24:06.710Z,66.50
2022-11-07T17:26:37.754Z,66.30
2022-11-07T17:29:08.156Z,62.30
2022-11-07T17:31:36.162Z,65.20
2022-11-07T17:34:04.276Z,56.90
2022-11-07T17:36:46.264Z,57.50
2022-11-07T17:39:19.997Z,55.30
2022-11-07T17:41:50.188Z,49.70
2022-11-07T17:44:18.954Z,51.20
2022-11-07T17:46:48.918Z,45.60
2022-11-07T17:49:19.299Z,56.10
2022-11-07T17:51:48.248Z,53.50
2022-11-07T17:56:44.702Z,55.40
2022-11-07T17:59:16.363Z,49.30
2022-11-07T18:01:45.055Z,55.30
2022-11-07T18:04:14.060Z,61.80
2022-11-07T18:06:43.359Z,77.90
2022-11-07T18:09:15.664Z,83.70
2022-11-07T18:11:44.600Z,80.90
2022-11-07T18:14:14.497Z,98.80
2022-11-07T18:16:42.744Z,94.60
2022-11-07T18:19:11.151Z,85.10
2022-11-07T18:21:39.230Z,84.70
2022-11-07T18:24:07.806Z,89.20
2022-11-07T18:26:37.121Z,61.90
2022-11-07T18:29:11.385Z,63.80
2022-11-07T18:31:43.218Z,72.40
2022-11-07T18:34:13.184Z,77.40
2022-11-07T18:36:43.369Z,72.00
2022-11-07T18:39:17.860Z,78.40
2022-11-07T18:41:46.076Z,84.60
2022-11-07T18:44:15.097Z,71.20
2022-11-07T18:46:43.586Z,71.20
2022-11-07T18:49:14.152Z,75.90
2022-11-07T18:51:45.498Z,69.60
2022-11-07T18:54:14.243Z,61.30
2022-11-07T18:56:43.103Z,55.20
2022-11-07T18:59:11.728Z,58.40
2022-11-07T19:01:39.969Z,57.40
2022-11-07T19:04:10.495Z,63.20
2022-11-07T19:06:55.766Z,43.90
2022-11-07T19:09:25.988Z,46.10
2022-11-07T19:11:54.604Z,54.30
2022-11-07T19:14:22.739Z,58.40
2022-11-07T19:16:50.970Z,53.20
2022-11-07T19:19:19.241Z,54.70
2022-11-07T19:21:47.401Z,63.80
2022-11-07T19:24:15.565Z,51.00
2022-11-07T19:26:43.613Z,50.90
2022-11-07T19:29:11.981Z,56.00
2022-11-07T19:31:40.162Z,55.00
2022-11-07T19:34:08.554Z,54.60
2022-11-07T19:36:37.145Z,56.20
2022-11-07T19:41:33.512Z,68.80
2022-11-07T19:44:04.576Z,56.90
2022-11-07T19:46:33.057Z,59.20
2022-11-07T19:49:01.107Z,54.30
2022-11-07T19:51:29.343Z,59.80
2022-11-07T19:53:59.536Z,67.70
2022-11-07T19:56:31.188Z,43.90
2022-11-07T19:59:01.615Z,33.10
2022-11-07T20:01:32.578Z,41.10
2022-11-07T20:04:02.338Z,38.20
2022-11-07T20:06:35.598Z,39.70
2022-11-07T20:09:08.550Z,46.40
2022-11-07T20:11:36.987Z,39.80
2022-11-07T20:14:05.651Z,34.20
2022-11-07T20:16:34.562Z,33.20
2022-11-07T20:19:02.897Z,33.70
2022-11-07T20:21:33.920Z,41.10
2022-11-07T20:24:02.774Z,41.10
2022-11-07T20:29:00.038Z,36.90
2022-11-07T20:31:34.193Z,37.00
2022-11-07T20:34:05.128Z,32.00
2022-11-07T20:36:34.233Z,30.30
2022-11-07T20:39:03.152Z,32.10
2022-11-07T20:41:31.470Z,37.20
2022-11-07T20:44:06.596Z,40.90
2022-11-07T20:46:38.121Z,35.80
2022-11-07T20:49:09.188Z,36.80
2022-11-07T20:51:37.751Z,27.70
2022-11-07T20:54:06.143Z,36.70
2022-11-07T20:56:34.121Z,37.50
2022-11-07T20:59:02.103Z,39.30
2022-11-07T21:01:36.424Z,34.40
2022-11-07T21:04:07.864Z,38.00
2022-11-07T21:06:36.619Z,36.60
2022-11-07T21:09:06.183Z,35.50
2022-11-07T21:11:35.249Z,31.10
2022-11-07T21:14:03.840Z,33.70
2022-11-07T21:16:36.112Z,32.50
2022-11-07T21:19:05.422Z,32.60
2022-11-07T21:21:33.819Z,35.90
2022-11-07T21:24:02.080Z,45.80
2022-11-07T21:26:36.052Z,43.00
2022-11-07T21:29:06.557Z,44.50
2022-11-07T21:31:37.557Z,41.60
2022-11-07T21:34:11.443Z,38.20
2022-11-07T21:36:39.479Z,33.80
2022-11-07T21:39:07.775Z,31.20
2022-11-07T21:41:36.276Z,29.60
2022-11-07T21:44:04.683Z,28.90
2022-11-07T21:46:34.516Z,30.00
2022-11-07T21:49:04.427Z,29.00
2022-11-07T21:51:34.844Z,31.90
2022-11-07T21:54:05.068Z,27.40
2022-11-07T21:56:37.756Z,25.60
2022-11-07T21:59:11.573Z,25.90
2022-11-07T22:01:40.674Z,28.00
2022-11-07T22:04:12.470Z,27.60
2022-11-07T22:06:44.146Z,26.40
2022-11-07T22:09:18.037Z,25.90
2022-11-07T22:11:47.042Z,26.20
2022-11-07T22:14:21.714Z,23.10
2022-11-07T22:16:51.115Z,23.90
2022-11-07T22:19:19.545Z,25.20
2022-11-07T22:21:49.447Z,25.50
2022-11-07T22:24:17.621Z,25.60
2022-11-07T22:26:45.606Z,25.30
2022-11-07T22:29:13.521Z,24.60
2022-11-07T22:31:41.476Z,23.00
2022-11-07T22:34:09.885Z,23.30
2022-11-07T22:36:38.102Z,22.40
2022-11-07T22:39:06.186Z,21.90
2022-11-07T22:41:34.267Z,19.80
2022-11-07T22:44:02.289Z,18.30
2022-11-07T22:46:31.283Z,15.90
2022-11-07T22:49:00.361Z,16.60
2022-11-07T22:51:31.506Z,16.90
2022-11-07T22:54:12.190Z,15.40
2022-11-07T22:56:41.399Z,15.80
2022-11-07T22:59:10.952Z,15.10
2022-11-07T23:01:41.232Z,17.90
2022-11-07T23:04:14.152Z,15.80
2022-11-07T23:06:42.384Z,15.80
2022-11-07T23:09:16.242Z,14.20
2022-11-07T23:11:47.207Z,16.20
2022-11-07T23:14:19.996Z,14.00
2022-11-07T23:16:53.314Z,13.40
2022-11-07T23:19:23.688Z,13.30
2022-11-07T23:21:53.554Z,14.00
2022-11-07T23:24:22.160Z,13.20
2022-11-07T23:26:50.249Z,13.50
2022-11-07T23:29:23.045Z,10.50
2022-11-07T23:31:52.144Z,10.80
2022-11-07T23:34:22.212Z,10.10
2022-11-07T23:36:51.563Z,10.20
2022-11-07T23:39:22.687Z,11.50
2022-11-07T23:41:50.938Z,11.10
2022-11-07T23:44:18.934Z,11.20
2022-11-07T23:47:06.726Z,11.50
2022-11-07T23:49:53.226Z,10.60
2022-11-07T23:52:21.483Z,10.70
2022-11-07T23:55:08.307Z,11.10
2022-11-07T23:57:57.377Z,12.50
